sensor_id;sensor_type;location;lat;lon;timestamp;P1;durP1;ratioP1;P2;durP2;ratioP2
67902;SDS011;54708;43.612;1.568;2024-02-14T00:00:25;10.82;;;6.32;;
67902;SDS011;54708;43.612;1.568;2024-02-14T00:02:51;8.07;;;6.00;;
67902;SDS011;54708;43.612;1.568;2024-02-14T00:05:16;7.80;;;5.32;;
67902;SDS011;54708;43.612;1.568;2024-02-14T00:07:42;9.40;;;5.32;;
67902;SDS011;54708;43.612;1.568;2024-02-14T00:10:08;8.60;;;4.82;;
67902;SDS011;54708;43.612;1.568;2024-02-14T00:12:34;5.82;;;3.75;;
67902;SDS011;54708;43.612;1.568;2024-02-14T00:15:00;4.43;;;3.75;;
67902;SDS011;54708;43.612;1.568;2024-02-14T00:17:30;5.15;;;3.95;;
67902;SDS011;54708;43.612;1.568;2024-02-14T00:19:56;6.63;;;3.65;;
67902;SDS011;54708;43.612;1.568;2024-02-14T00:22:21;7.60;;;4.47;;
67902;SDS011;54708;43.612;1.568;2024-02-14T00:24:46;6.70;;;5.35;;
67902;SDS011;54708;43.612;1.568;2024-02-14T00:27:12;8.75;;;5.95;;
67902;SDS011;54708;43.612;1.568;2024-02-14T00:29:39;10.23;;;6.03;;
67902;SDS011;54708;43.612;1.568;2024-02-14T00:32:05;9.35;;;6.30;;
67902;SDS011;54708;43.612;1.568;2024-02-14T00:34:30;15.10;;;9.40;;
67902;SDS011;54708;43.612;1.568;2024-02-14T00:36:56;15.55;;;9.80;;
67902;SDS011;54708;43.612;1.568;2024-02-14T00:39:21;11.77;;;9.07;;
67902;SDS011;54708;43.612;1.568;2024-02-14T00:41:46;10.50;;;7.60;;
67902;SDS011;54708;43.612;1.568;2024-02-14T00:44:12;17.45;;;10.48;;
67902;SDS011;54708;43.612;1.568;2024-02-14T00:46:38;14.60;;;9.88;;
67902;SDS011;54708;43.612;1.568;2024-02-14T00:49:03;13.75;;;9.20;;
67902;SDS011;54708;43.612;1.568;2024-02-14T00:51:29;13.10;;;8.45;;
67902;SDS011;54708;43.612;1.568;2024-02-14T00:53:54;10.38;;;7.30;;
67902;SDS011;54708;43.612;1.568;2024-02-14T00:56:19;11.80;;;8.65;;
67902;SDS011;54708;43.612;1.568;2024-02-14T00:58:45;12.18;;;7.30;;
67902;SDS011;54708;43.612;1.568;2024-02-14T01:01:10;15.98;;;7.80;;
67902;SDS011;54708;43.612;1.568;2024-02-14T01:03:37;9.85;;;7.15;;
67902;SDS011;54708;43.612;1.568;2024-02-14T01:06:02;9.52;;;6.75;;
67902;SDS011;54708;43.612;1.568;2024-02-14T01:08:28;7.53;;;6.05;;
67902;SDS011;54708;43.612;1.568;2024-02-14T01:10:54;10.02;;;5.93;;
67902;SDS011;54708;43.612;1.568;2024-02-14T01:13:19;8.25;;;5.57;;
67902;SDS011;54708;43.612;1.568;2024-02-14T01:15:44;11.85;;;7.13;;
67902;SDS011;54708;43.612;1.568;2024-02-14T01:18:10;10.40;;;5.85;;
67902;SDS011;54708;43.612;1.568;2024-02-14T01:20:35;6.65;;;5.20;;
67902;SDS011;54708;43.612;1.568;2024-02-14T01:23:02;6.47;;;5.07;;
67902;SDS011;54708;43.612;1.568;2024-02-14T01:25:27;7.32;;;6.20;;
67902;SDS011;54708;43.612;1.568;2024-02-14T01:27:53;7.55;;;5.80;;
67902;SDS011;54708;43.612;1.568;2024-02-14T01:30:18;7.18;;;5.72;;
67902;SDS011;54708;43.612;1.568;2024-02-14T01:32:44;7.47;;;5.80;;
67902;SDS011;54708;43.612;1.568;2024-02-14T01:35:09;7.05;;;5.07;;
67902;SDS011;54708;43.612;1.568;2024-02-14T01:37:35;8.30;;;5.97;;
67902;SDS011;54708;43.612;1.568;2024-02-14T01:40:00;10.98;;;6.80;;
67902;SDS011;54708;43.612;1.568;2024-02-14T01:42:26;13.57;;;7.80;;
67902;SDS011;54708;43.612;1.568;2024-02-14T01:44:52;10.70;;;6.53;;
67902;SDS011;54708;43.612;1.568;2024-02-14T01:47:19;12.98;;;6.60;;
67902;SDS011;54708;43.612;1.568;2024-02-14T01:49:45;10.85;;;7.28;;
67902;SDS011;54708;43.612;1.568;2024-02-14T01:52:12;12.48;;;7.22;;
67902;SDS011;54708;43.612;1.568;2024-02-14T01:54:37;11.40;;;7.03;;
67902;SDS011;54708;43.612;1.568;2024-02-14T01:57:03;11.73;;;7.80;;
67902;SDS011;54708;43.612;1.568;2024-02-14T01:59:30;8.85;;;7.07;;
67902;SDS011;54708;43.612;1.568;2024-02-14T02:01:55;10.75;;;7.82;;
67902;SDS011;54708;43.612;1.568;2024-02-14T02:04:21;11.82;;;7.07;;
67902;SDS011;54708;43.612;1.568;2024-02-14T02:06:46;9.52;;;7.18;;
67902;SDS011;54708;43.612;1.568;2024-02-14T02:09:12;11.15;;;7.45;;
67902;SDS011;54708;43.612;1.568;2024-02-14T02:11:46;8.98;;;6.55;;
67902;SDS011;54708;43.612;1.568;2024-02-14T02:14:13;10.93;;;6.88;;
67902;SDS011;54708;43.612;1.568;2024-02-14T02:16:39;8.65;;;5.82;;
67902;SDS011;54708;43.612;1.568;2024-02-14T02:19:04;11.25;;;7.00;;
67902;SDS011;54708;43.612;1.568;2024-02-14T02:21:33;10.15;;;5.85;;
67902;SDS011;54708;43.612;1.568;2024-02-14T02:24:00;7.82;;;5.40;;
67902;SDS011;54708;43.612;1.568;2024-02-14T02:26:25;8.00;;;4.88;;
67902;SDS011;54708;43.612;1.568;2024-02-14T02:28:51;6.75;;;4.35;;
67902;SDS011;54708;43.612;1.568;2024-02-14T02:31:16;8.95;;;5.03;;
67902;SDS011;54708;43.612;1.568;2024-02-14T02:33:42;7.93;;;5.32;;
67902;SDS011;54708;43.612;1.568;2024-02-14T02:36:08;9.70;;;4.47;;
67902;SDS011;54708;43.612;1.568;2024-02-14T02:38:34;7.60;;;6.00;;
67902;SDS011;54708;43.612;1.568;2024-02-14T02:41:01;9.18;;;5.00;;
67902;SDS011;54708;43.612;1.568;2024-02-14T02:43:27;7.80;;;5.22;;
67902;SDS011;54708;43.612;1.568;2024-02-14T02:45:53;6.10;;;5.20;;
67902;SDS011;54708;43.612;1.568;2024-02-14T02:48:18;10.23;;;5.55;;
67902;SDS011;54708;43.612;1.568;2024-02-14T02:50:47;8.60;;;5.43;;
67902;SDS011;54708;43.612;1.568;2024-02-14T02:53:14;11.18;;;4.97;;
67902;SDS011;54708;43.612;1.568;2024-02-14T02:55:40;9.32;;;5.47;;
67902;SDS011;54708;43.612;1.568;2024-02-14T02:58:06;9.02;;;5.00;;
67902;SDS011;54708;43.612;1.568;2024-02-14T03:00:31;9.35;;;5.93;;
67902;SDS011;54708;43.612;1.568;2024-02-14T03:02:57;7.70;;;4.97;;
67902;SDS011;54708;43.612;1.568;2024-02-14T03:05:23;7.40;;;5.18;;
67902;SDS011;54708;43.612;1.568;2024-02-14T03:07:48;36.58;;;6.40;;
67902;SDS011;54708;43.612;1.568;2024-02-14T03:10:15;7.82;;;5.32;;
67902;SDS011;54708;43.612;1.568;2024-02-14T03:12:44;7.30;;;4.68;;
67902;SDS011;54708;43.612;1.568;2024-02-14T03:15:12;8.45;;;4.30;;
67902;SDS011;54708;43.612;1.568;2024-02-14T03:17:38;5.40;;;4.25;;
67902;SDS011;54708;43.612;1.568;2024-02-14T03:20:04;5.78;;;4.25;;
67902;SDS011;54708;43.612;1.568;2024-02-14T03:22:37;4.97;;;4.35;;
67902;SDS011;54708;43.612;1.568;2024-02-14T03:25:07;7.05;;;4.45;;
67902;SDS011;54708;43.612;1.568;2024-02-14T03:27:33;8.00;;;4.97;;
67902;SDS011;54708;43.612;1.568;2024-02-14T03:29:59;8.43;;;4.53;;
67902;SDS011;54708;43.612;1.568;2024-02-14T03:32:25;7.32;;;4.72;;
67902;SDS011;54708;43.612;1.568;2024-02-14T03:34:51;8.02;;;4.72;;
67902;SDS011;54708;43.612;1.568;2024-02-14T03:37:16;6.43;;;4.15;;
67902;SDS011;54708;43.612;1.568;2024-02-14T03:39:43;6.50;;;4.25;;
67902;SDS011;54708;43.612;1.568;2024-02-14T03:42:10;6.35;;;4.05;;
67902;SDS011;54708;43.612;1.568;2024-02-14T03:44:36;4.60;;;4.03;;
67902;SDS011;54708;43.612;1.568;2024-02-14T03:47:03;6.13;;;4.03;;
67902;SDS011;54708;43.612;1.568;2024-02-14T03:49:29;7.18;;;4.72;;
67902;SDS011;54708;43.612;1.568;2024-02-14T03:51:55;6.05;;;4.10;;
67902;SDS011;54708;43.612;1.568;2024-02-14T03:54:21;7.72;;;4.10;;
67902;SDS011;54708;43.612;1.568;2024-02-14T03:56:48;5.68;;;4.72;;
67902;SDS011;54708;43.612;1.568;2024-02-14T03:59:14;7.25;;;4.63;;
67902;SDS011;54708;43.612;1.568;2024-02-14T04:01:43;7.10;;;4.88;;
67902;SDS011;54708;43.612;1.568;2024-02-14T04:04:10;5.25;;;4.75;;
67902;SDS011;54708;43.612;1.568;2024-02-14T04:06:35;7.88;;;4.63;;
67902;SDS011;54708;43.612;1.568;2024-02-14T04:09:00;5.32;;;4.00;;
67902;SDS011;54708;43.612;1.568;2024-02-14T04:11:26;7.10;;;4.00;;
67902;SDS011;54708;43.612;1.568;2024-02-14T04:13:51;5.57;;;4.03;;
67902;SDS011;54708;43.612;1.568;2024-02-14T04:16:20;4.47;;;3.67;;
67902;SDS011;54708;43.612;1.568;2024-02-14T04:18:46;7.53;;;4.18;;
67902;SDS011;54708;43.612;1.568;2024-02-14T04:21:11;6.45;;;4.43;;
67902;SDS011;54708;43.612;1.568;2024-02-14T04:23:37;6.35;;;4.00;;
67902;SDS011;54708;43.612;1.568;2024-02-14T04:26:02;5.50;;;3.85;;
67902;SDS011;54708;43.612;1.568;2024-02-14T04:28:28;7.63;;;4.22;;
67902;SDS011;54708;43.612;1.568;2024-02-14T04:30:53;7.07;;;3.80;;
67902;SDS011;54708;43.612;1.568;2024-02-14T04:33:20;4.38;;;3.33;;
67902;SDS011;54708;43.612;1.568;2024-02-14T04:35:46;5.05;;;3.08;;
67902;SDS011;54708;43.612;1.568;2024-02-14T04:38:12;5.60;;;3.72;;
67902;SDS011;54708;43.612;1.568;2024-02-14T04:40:37;8.90;;;3.78;;
67902;SDS011;54708;43.612;1.568;2024-02-14T04:43:03;5.05;;;4.38;;
67902;SDS011;54708;43.612;1.568;2024-02-14T04:45:29;4.50;;;3.63;;
67902;SDS011;54708;43.612;1.568;2024-02-14T04:47:55;5.32;;;3.60;;
67902;SDS011;54708;43.612;1.568;2024-02-14T04:50:20;4.32;;;3.92;;
67902;SDS011;54708;43.612;1.568;2024-02-14T04:52:45;4.60;;;4.10;;
67902;SDS011;54708;43.612;1.568;2024-02-14T04:55:11;5.07;;;3.47;;
67902;SDS011;54708;43.612;1.568;2024-02-14T04:57:36;10.32;;;4.20;;
67902;SDS011;54708;43.612;1.568;2024-02-14T05:00:02;6.28;;;4.63;;
67902;SDS011;54708;43.612;1.568;2024-02-14T05:02:30;7.95;;;4.00;;
67902;SDS011;54708;43.612;1.568;2024-02-14T05:04:56;4.13;;;3.50;;
67902;SDS011;54708;43.612;1.568;2024-02-14T05:07:21;6.90;;;3.72;;
67902;SDS011;54708;43.612;1.568;2024-02-14T05:09:46;6.25;;;3.80;;
67902;SDS011;54708;43.612;1.568;2024-02-14T05:12:15;6.32;;;3.83;;
67902;SDS011;54708;43.612;1.568;2024-02-14T05:14:40;5.15;;;3.78;;
67902;SDS011;54708;43.612;1.568;2024-02-14T05:17:06;6.63;;;4.32;;
67902;SDS011;54708;43.612;1.568;2024-02-14T05:19:32;7.68;;;4.55;;
67902;SDS011;54708;43.612;1.568;2024-02-14T05:21:58;8.77;;;4.57;;
67902;SDS011;54708;43.612;1.568;2024-02-14T05:24:23;4.45;;;4.03;;
67902;SDS011;54708;43.612;1.568;2024-02-14T05:26:52;4.47;;;3.83;;
67902;SDS011;54708;43.612;1.568;2024-02-14T05:29:17;7.20;;;4.47;;
67902;SDS011;54708;43.612;1.568;2024-02-14T05:31:45;7.93;;;3.75;;
67902;SDS011;54708;43.612;1.568;2024-02-14T05:34:11;5.97;;;4.72;;
67902;SDS011;54708;43.612;1.568;2024-02-14T05:36:37;4.28;;;3.47;;
67902;SDS011;54708;43.612;1.568;2024-02-14T05:39:03;6.35;;;4.10;;
67902;SDS011;54708;43.612;1.568;2024-02-14T05:41:29;6.32;;;4.63;;
67902;SDS011;54708;43.612;1.568;2024-02-14T05:43:55;9.73;;;4.85;;
67902;SDS011;54708;43.612;1.568;2024-02-14T05:46:20;4.15;;;3.75;;
67902;SDS011;54708;43.612;1.568;2024-02-14T05:48:47;5.78;;;4.40;;
67902;SDS011;54708;43.612;1.568;2024-02-14T05:51:13;7.47;;;4.10;;
67902;SDS011;54708;43.612;1.568;2024-02-14T05:53:38;5.15;;;3.67;;
67902;SDS011;54708;43.612;1.568;2024-02-14T05:56:04;8.05;;;4.95;;
67902;SDS011;54708;43.612;1.568;2024-02-14T05:58:29;5.03;;;3.38;;
67902;SDS011;54708;43.612;1.568;2024-02-14T06:00:54;6.18;;;3.50;;
67902;SDS011;54708;43.612;1.568;2024-02-14T06:03:20;4.95;;;3.50;;
67902;SDS011;54708;43.612;1.568;2024-02-14T06:05:46;4.97;;;3.97;;
67902;SDS011;54708;43.612;1.568;2024-02-14T06:08:11;5.00;;;4.13;;
67902;SDS011;54708;43.612;1.568;2024-02-14T06:10:37;6.97;;;4.28;;
67902;SDS011;54708;43.612;1.568;2024-02-14T06:13:03;4.43;;;3.65;;
67902;SDS011;54708;43.612;1.568;2024-02-14T06:15:29;5.47;;;3.67;;
67902;SDS011;54708;43.612;1.568;2024-02-14T06:17:54;4.95;;;3.60;;
67902;SDS011;54708;43.612;1.568;2024-02-14T06:20:20;8.32;;;4.20;;
67902;SDS011;54708;43.612;1.568;2024-02-14T06:22:45;6.55;;;3.70;;
67902;SDS011;54708;43.612;1.568;2024-02-14T06:25:10;5.75;;;3.97;;
67902;SDS011;54708;43.612;1.568;2024-02-14T06:27:36;10.52;;;4.13;;
67902;SDS011;54708;43.612;1.568;2024-02-14T06:30:02;6.03;;;4.68;;
67902;SDS011;54708;43.612;1.568;2024-02-14T06:32:28;6.03;;;4.35;;
67902;SDS011;54708;43.612;1.568;2024-02-14T06:34:53;6.93;;;3.92;;
67902;SDS011;54708;43.612;1.568;2024-02-14T06:37:19;6.40;;;4.72;;
67902;SDS011;54708;43.612;1.568;2024-02-14T06:39:45;5.85;;;4.25;;
67902;SDS011;54708;43.612;1.568;2024-02-14T06:42:10;9.63;;;6.72;;
67902;SDS011;54708;43.612;1.568;2024-02-14T06:44:35;14.63;;;10.00;;
67902;SDS011;54708;43.612;1.568;2024-02-14T06:47:01;12.57;;;7.68;;
67902;SDS011;54708;43.612;1.568;2024-02-14T06:49:26;10.65;;;8.73;;
67902;SDS011;54708;43.612;1.568;2024-02-14T06:51:51;11.90;;;7.65;;
67902;SDS011;54708;43.612;1.568;2024-02-14T06:54:17;11.02;;;6.95;;
67902;SDS011;54708;43.612;1.568;2024-02-14T06:56:44;11.65;;;6.68;;
67902;SDS011;54708;43.612;1.568;2024-02-14T06:59:10;14.65;;;8.63;;
67902;SDS011;54708;43.612;1.568;2024-02-14T07:01:35;14.10;;;8.93;;
67902;SDS011;54708;43.612;1.568;2024-02-14T07:04:00;15.32;;;9.80;;
67902;SDS011;54708;43.612;1.568;2024-02-14T07:06:26;19.75;;;11.60;;
67902;SDS011;54708;43.612;1.568;2024-02-14T07:08:52;18.48;;;11.43;;
67902;SDS011;54708;43.612;1.568;2024-02-14T07:11:18;14.40;;;9.98;;
67902;SDS011;54708;43.612;1.568;2024-02-14T07:13:43;13.88;;;10.10;;
67902;SDS011;54708;43.612;1.568;2024-02-14T07:16:09;14.15;;;9.85;;
67902;SDS011;54708;43.612;1.568;2024-02-14T07:18:34;14.60;;;10.10;;
67902;SDS011;54708;43.612;1.568;2024-02-14T07:21:00;11.63;;;9.00;;
67902;SDS011;54708;43.612;1.568;2024-02-14T07:23:26;14.15;;;8.77;;
67902;SDS011;54708;43.612;1.568;2024-02-14T07:25:52;10.98;;;6.72;;
67902;SDS011;54708;43.612;1.568;2024-02-14T07:28:17;9.57;;;6.85;;
67902;SDS011;54708;43.612;1.568;2024-02-14T07:30:43;7.28;;;5.75;;
67902;SDS011;54708;43.612;1.568;2024-02-14T07:33:08;9.95;;;6.00;;
67902;SDS011;54708;43.612;1.568;2024-02-14T07:35:34;9.45;;;5.82;;
67902;SDS011;54708;43.612;1.568;2024-02-14T07:38:00;9.10;;;6.45;;
67902;SDS011;54708;43.612;1.568;2024-02-14T07:40:25;8.90;;;5.65;;
67902;SDS011;54708;43.612;1.568;2024-02-14T07:42:52;9.00;;;5.70;;
67902;SDS011;54708;43.612;1.568;2024-02-14T07:45:17;9.23;;;6.15;;
67902;SDS011;54708;43.612;1.568;2024-02-14T07:47:43;9.80;;;6.80;;
67902;SDS011;54708;43.612;1.568;2024-02-14T07:50:08;6.75;;;5.80;;
67902;SDS011;54708;43.612;1.568;2024-02-14T07:52:34;6.97;;;5.82;;
67902;SDS011;54708;43.612;1.568;2024-02-14T07:55:01;11.55;;;6.05;;
67902;SDS011;54708;43.612;1.568;2024-02-14T07:57:26;10.25;;;6.65;;
67902;SDS011;54708;43.612;1.568;2024-02-14T07:59:52;10.18;;;5.93;;
67902;SDS011;54708;43.612;1.568;2024-02-14T08:02:18;11.02;;;6.07;;
67902;SDS011;54708;43.612;1.568;2024-02-14T08:04:44;9.70;;;6.15;;
67902;SDS011;54708;43.612;1.568;2024-02-14T08:07:10;9.07;;;5.18;;
67902;SDS011;54708;43.612;1.568;2024-02-14T08:09:36;7.22;;;4.70;;
67902;SDS011;54708;43.612;1.568;2024-02-14T08:12:01;5.25;;;3.75;;
67902;SDS011;54708;43.612;1.568;2024-02-14T08:14:27;7.30;;;4.10;;
67902;SDS011;54708;43.612;1.568;2024-02-14T08:16:52;9.05;;;3.92;;
67902;SDS011;54708;43.612;1.568;2024-02-14T08:19:18;4.63;;;3.55;;
67902;SDS011;54708;43.612;1.568;2024-02-14T08:21:44;10.18;;;5.63;;
67902;SDS011;54708;43.612;1.568;2024-02-14T08:24:09;7.78;;;5.30;;
67902;SDS011;54708;43.612;1.568;2024-02-14T08:26:35;8.98;;;5.22;;
67902;SDS011;54708;43.612;1.568;2024-02-14T08:29:00;8.77;;;4.53;;
67902;SDS011;54708;43.612;1.568;2024-02-14T08:31:26;6.78;;;4.25;;
67902;SDS011;54708;43.612;1.568;2024-02-14T08:33:52;11.40;;;4.72;;
67902;SDS011;54708;43.612;1.568;2024-02-14T08:36:18;5.43;;;4.05;;
67902;SDS011;54708;43.612;1.568;2024-02-14T08:38:44;5.03;;;3.60;;
67902;SDS011;54708;43.612;1.568;2024-02-14T08:41:09;7.90;;;4.57;;
67902;SDS011;54708;43.612;1.568;2024-02-14T08:43:34;4.78;;;3.92;;
67902;SDS011;54708;43.612;1.568;2024-02-14T08:46:00;13.45;;;4.30;;
67902;SDS011;54708;43.612;1.568;2024-02-14T08:48:25;7.15;;;3.08;;
67902;SDS011;54708;43.612;1.568;2024-02-14T08:50:52;6.35;;;3.30;;
67902;SDS011;54708;43.612;1.568;2024-02-14T08:53:18;4.80;;;3.40;;
67902;SDS011;54708;43.612;1.568;2024-02-14T08:55:43;12.35;;;4.35;;
67902;SDS011;54708;43.612;1.568;2024-02-14T08:58:09;7.07;;;3.67;;
67902;SDS011;54708;43.612;1.568;2024-02-14T09:00:35;5.32;;;4.10;;
67902;SDS011;54708;43.612;1.568;2024-02-14T09:03:06;4.93;;;3.30;;
67902;SDS011;54708;43.612;1.568;2024-02-14T09:05:31;10.65;;;4.68;;
67902;SDS011;54708;43.612;1.568;2024-02-14T09:07:57;6.00;;;3.58;;
67902;SDS011;54708;43.612;1.568;2024-02-14T09:10:23;5.55;;;4.25;;
67902;SDS011;54708;43.612;1.568;2024-02-14T09:12:48;7.10;;;4.13;;
67902;SDS011;54708;43.612;1.568;2024-02-14T09:15:13;4.57;;;3.72;;
67902;SDS011;54708;43.612;1.568;2024-02-14T09:17:39;7.07;;;4.28;;
67902;SDS011;54708;43.612;1.568;2024-02-14T09:20:06;7.32;;;5.00;;
67902;SDS011;54708;43.612;1.568;2024-02-14T09:22:38;6.55;;;4.00;;
67902;SDS011;54708;43.612;1.568;2024-02-14T09:25:06;7.15;;;5.13;;
67902;SDS011;54708;43.612;1.568;2024-02-14T09:27:33;4.68;;;3.85;;
67902;SDS011;54708;43.612;1.568;2024-02-14T09:30:00;7.60;;;3.50;;
67902;SDS011;54708;43.612;1.568;2024-02-14T09:32:26;5.72;;;3.47;;
67902;SDS011;54708;43.612;1.568;2024-02-14T09:34:51;4.72;;;2.78;;
67902;SDS011;54708;43.612;1.568;2024-02-14T09:37:16;3.55;;;2.97;;
67902;SDS011;54708;43.612;1.568;2024-02-14T09:39:42;6.55;;;3.03;;
67902;SDS011;54708;43.612;1.568;2024-02-14T09:42:09;5.07;;;3.00;;
67902;SDS011;54708;43.612;1.568;2024-02-14T09:44:37;5.47;;;3.13;;
67902;SDS011;54708;43.612;1.568;2024-02-14T09:47:05;4.78;;;3.17;;
67902;SDS011;54708;43.612;1.568;2024-02-14T09:49:31;3.22;;;2.47;;
67902;SDS011;54708;43.612;1.568;2024-02-14T09:51:57;4.22;;;2.78;;
67902;SDS011;54708;43.612;1.568;2024-02-14T09:54:24;6.30;;;2.42;;
67902;SDS011;54708;43.612;1.568;2024-02-14T09:56:50;3.40;;;2.55;;
67902;SDS011;54708;43.612;1.568;2024-02-14T09:59:18;4.72;;;2.65;;
67902;SDS011;54708;43.612;1.568;2024-02-14T10:01:44;6.63;;;2.65;;
67902;SDS011;54708;43.612;1.568;2024-02-14T10:04:11;6.50;;;3.60;;
67902;SDS011;54708;43.612;1.568;2024-02-14T10:06:36;4.50;;;2.70;;
67902;SDS011;54708;43.612;1.568;2024-02-14T10:09:02;4.40;;;2.40;;
67902;SDS011;54708;43.612;1.568;2024-02-14T10:11:27;5.13;;;2.33;;
67902;SDS011;54708;43.612;1.568;2024-02-14T10:13:53;4.00;;;2.45;;
67902;SDS011;54708;43.612;1.568;2024-02-14T10:16:22;6.05;;;2.70;;
67902;SDS011;54708;43.612;1.568;2024-02-14T10:18:47;3.67;;;2.10;;
67902;SDS011;54708;43.612;1.568;2024-02-14T10:21:15;3.00;;;1.83;;
67902;SDS011;54708;43.612;1.568;2024-02-14T10:23:42;3.00;;;2.10;;
67902;SDS011;54708;43.612;1.568;2024-02-14T10:26:08;2.53;;;2.00;;
67902;SDS011;54708;43.612;1.568;2024-02-14T10:28:33;3.22;;;1.70;;
67902;SDS011;54708;43.612;1.568;2024-02-14T10:30:59;5.15;;;2.25;;
67902;SDS011;54708;43.612;1.568;2024-02-14T10:33:27;2.30;;;2.08;;
67902;SDS011;54708;43.612;1.568;2024-02-14T10:35:54;4.10;;;2.05;;
67902;SDS011;54708;43.612;1.568;2024-02-14T10:38:20;5.20;;;1.85;;
67902;SDS011;54708;43.612;1.568;2024-02-14T10:40:46;5.53;;;1.70;;
67902;SDS011;54708;43.612;1.568;2024-02-14T10:43:12;2.75;;;1.95;;
67902;SDS011;54708;43.612;1.568;2024-02-14T10:45:37;1.60;;;1.50;;
67902;SDS011;54708;43.612;1.568;2024-02-14T10:48:06;5.70;;;1.80;;
67902;SDS011;54708;43.612;1.568;2024-02-14T10:50:36;3.88;;;1.63;;
67902;SDS011;54708;43.612;1.568;2024-02-14T10:53:06;2.80;;;1.63;;
67902;SDS011;54708;43.612;1.568;2024-02-14T10:55:38;4.38;;;1.83;;
67902;SDS011;54708;43.612;1.568;2024-02-14T10:58:07;2.03;;;1.83;;
67902;SDS011;54708;43.612;1.568;2024-02-14T11:00:33;2.40;;;1.77;;
67902;SDS011;54708;43.612;1.568;2024-02-14T11:02:58;4.45;;;2.22;;
67902;SDS011;54708;43.612;1.568;2024-02-14T11:05:25;3.45;;;1.85;;
67902;SDS011;54708;43.612;1.568;2024-02-14T11:07:51;4.53;;;2.30;;
67902;SDS011;54708;43.612;1.568;2024-02-14T11:10:19;3.00;;;2.50;;
67902;SDS011;54708;43.612;1.568;2024-02-14T11:12:47;4.57;;;2.78;;
67902;SDS011;54708;43.612;1.568;2024-02-14T11:15:18;6.25;;;2.40;;
67902;SDS011;54708;43.612;1.568;2024-02-14T11:17:45;5.03;;;2.15;;
67902;SDS011;54708;43.612;1.568;2024-02-14T11:20:15;2.70;;;1.70;;
67902;SDS011;54708;43.612;1.568;2024-02-14T11:23:06;2.88;;;1.90;;
67902;SDS011;54708;43.612;1.568;2024-02-14T11:25:32;3.58;;;2.67;;
67902;SDS011;54708;43.612;1.568;2024-02-14T11:28:12;1.85;;;1.40;;
67902;SDS011;54708;43.612;1.568;2024-02-14T11:30:39;2.83;;;1.88;;
67902;SDS011;54708;43.612;1.568;2024-02-14T11:33:23;1.73;;;1.50;;
67902;SDS011;54708;43.612;1.568;2024-02-14T11:35:52;3.22;;;1.63;;
67902;SDS011;54708;43.612;1.568;2024-02-14T11:38:21;1.80;;;1.25;;
67902;SDS011;54708;43.612;1.568;2024-02-14T11:40:48;3.88;;;1.50;;
67902;SDS011;54708;43.612;1.568;2024-02-14T11:43:15;3.35;;;1.40;;
67902;SDS011;54708;43.612;1.568;2024-02-14T11:45:42;2.97;;;1.52;;
67902;SDS011;54708;43.612;1.568;2024-02-14T11:48:12;3.55;;;2.55;;
67902;SDS011;54708;43.612;1.568;2024-02-14T11:50:41;2.45;;;1.67;;
67902;SDS011;54708;43.612;1.568;2024-02-14T11:53:09;3.15;;;2.22;;
67902;SDS011;54708;43.612;1.568;2024-02-14T11:55:36;1.52;;;1.42;;
67902;SDS011;54708;43.612;1.568;2024-02-14T11:58:03;3.70;;;1.60;;
67902;SDS011;54708;43.612;1.568;2024-02-14T12:00:32;2.22;;;1.65;;
67902;SDS011;54708;43.612;1.568;2024-02-14T12:02:57;5.60;;;1.88;;
67902;SDS011;54708;43.612;1.568;2024-02-14T12:05:23;3.20;;;2.15;;
67902;SDS011;54708;43.612;1.568;2024-02-14T12:07:48;3.15;;;1.90;;
67902;SDS011;54708;43.612;1.568;2024-02-14T12:10:15;4.28;;;2.35;;
67902;SDS011;54708;43.612;1.568;2024-02-14T12:12:44;3.80;;;2.58;;
67902;SDS011;54708;43.612;1.568;2024-02-14T12:15:10;4.68;;;2.30;;
67902;SDS011;54708;43.612;1.568;2024-02-14T12:17:36;4.65;;;2.08;;
67902;SDS011;54708;43.612;1.568;2024-02-14T12:20:08;10.77;;;2.58;;
67902;SDS011;54708;43.612;1.568;2024-02-14T12:22:39;3.90;;;1.92;;
67902;SDS011;54708;43.612;1.568;2024-02-14T12:25:05;3.35;;;2.00;;
67902;SDS011;54708;43.612;1.568;2024-02-14T12:27:36;4.38;;;1.88;;
67902;SDS011;54708;43.612;1.568;2024-02-14T12:30:08;2.40;;;1.95;;
67902;SDS011;54708;43.612;1.568;2024-02-14T12:32:35;2.53;;;2.25;;
67902;SDS011;54708;43.612;1.568;2024-02-14T12:35:00;2.88;;;1.77;;
67902;SDS011;54708;43.612;1.568;2024-02-14T12:37:26;2.42;;;1.65;;
67902;SDS011;54708;43.612;1.568;2024-02-14T12:39:51;3.35;;;1.90;;
67902;SDS011;54708;43.612;1.568;2024-02-14T12:42:17;3.40;;;1.73;;
67902;SDS011;54708;43.612;1.568;2024-02-14T12:44:49;3.00;;;1.90;;
67902;SDS011;54708;43.612;1.568;2024-02-14T12:47:15;3.28;;;2.10;;
67902;SDS011;54708;43.612;1.568;2024-02-14T12:49:40;3.65;;;1.52;;
67902;SDS011;54708;43.612;1.568;2024-02-14T12:52:06;3.88;;;1.25;;
67902;SDS011;54708;43.612;1.568;2024-02-14T12:54:31;1.80;;;1.35;;
67902;SDS011;54708;43.612;1.568;2024-02-14T12:56:57;1.38;;;1.00;;
67902;SDS011;54708;43.612;1.568;2024-02-14T12:59:22;2.65;;;0.80;;
67902;SDS011;54708;43.612;1.568;2024-02-14T13:01:47;2.15;;;0.80;;
67902;SDS011;54708;43.612;1.568;2024-02-14T13:04:13;1.10;;;1.00;;
67902;SDS011;54708;43.612;1.568;2024-02-14T13:06:41;1.90;;;1.00;;
67902;SDS011;54708;43.612;1.568;2024-02-14T13:09:07;2.47;;;0.93;;
67902;SDS011;54708;43.612;1.568;2024-02-14T13:11:33;8.27;;;2.00;;
67902;SDS011;54708;43.612;1.568;2024-02-14T13:13:58;3.72;;;0.70;;
67902;SDS011;54708;43.612;1.568;2024-02-14T13:16:24;1.90;;;0.93;;
67902;SDS011;54708;43.612;1.568;2024-02-14T13:18:49;1.67;;;0.70;;
67902;SDS011;54708;43.612;1.568;2024-02-14T13:21:15;2.30;;;0.90;;
67902;SDS011;54708;43.612;1.568;2024-02-14T13:23:41;1.27;;;1.00;;
67902;SDS011;54708;43.612;1.568;2024-02-14T13:26:07;1.75;;;0.80;;
67902;SDS011;54708;43.612;1.568;2024-02-14T13:28:32;1.25;;;0.90;;
67902;SDS011;54708;43.612;1.568;2024-02-14T13:30:58;1.02;;;0.70;;
67902;SDS011;54708;43.612;1.568;2024-02-14T13:33:23;0.95;;;0.82;;
67902;SDS011;54708;43.612;1.568;2024-02-14T13:35:49;4.00;;;1.58;;
67902;SDS011;54708;43.612;1.568;2024-02-14T13:38:14;3.58;;;1.08;;
67902;SDS011;54708;43.612;1.568;2024-02-14T13:40:39;2.25;;;1.13;;
67902;SDS011;54708;43.612;1.568;2024-02-14T13:43:05;2.75;;;1.13;;
67902;SDS011;54708;43.612;1.568;2024-02-14T13:45:40;3.92;;;1.00;;
67902;SDS011;54708;43.612;1.568;2024-02-14T13:48:07;2.03;;;0.95;;
67902;SDS011;54708;43.612;1.568;2024-02-14T13:50:33;1.50;;;1.02;;
67902;SDS011;54708;43.612;1.568;2024-02-14T13:52:59;2.28;;;1.55;;
67902;SDS011;54708;43.612;1.568;2024-02-14T13:55:24;4.32;;;1.20;;
67902;SDS011;54708;43.612;1.568;2024-02-14T13:57:50;1.40;;;1.00;;
67902;SDS011;54708;43.612;1.568;2024-02-14T14:00:16;2.05;;;1.15;;
67902;SDS011;54708;43.612;1.568;2024-02-14T14:02:41;3.30;;;0.98;;
67902;SDS011;54708;43.612;1.568;2024-02-14T14:05:10;2.75;;;1.30;;
67902;SDS011;54708;43.612;1.568;2024-02-14T14:07:36;1.70;;;1.13;;
67902;SDS011;54708;43.612;1.568;2024-02-14T14:10:03;1.35;;;1.15;;
67902;SDS011;54708;43.612;1.568;2024-02-14T14:12:29;5.07;;;1.13;;
67902;SDS011;54708;43.612;1.568;2024-02-14T14:14:55;1.15;;;1.00;;
67902;SDS011;54708;43.612;1.568;2024-02-14T14:17:21;2.60;;;1.23;;
67902;SDS011;54708;43.612;1.568;2024-02-14T14:19:46;3.53;;;1.10;;
67902;SDS011;54708;43.612;1.568;2024-02-14T14:22:12;2.72;;;1.30;;
67902;SDS011;54708;43.612;1.568;2024-02-14T14:24:37;2.33;;;1.48;;
67902;SDS011;54708;43.612;1.568;2024-02-14T14:27:02;1.77;;;1.20;;
67902;SDS011;54708;43.612;1.568;2024-02-14T14:29:28;1.73;;;1.10;;
67902;SDS011;54708;43.612;1.568;2024-02-14T14:31:54;6.63;;;1.17;;
67902;SDS011;54708;43.612;1.568;2024-02-14T14:34:19;1.13;;;0.80;;
67902;SDS011;54708;43.612;1.568;2024-02-14T14:36:45;1.60;;;0.88;;
67902;SDS011;54708;43.612;1.568;2024-02-14T14:39:10;4.03;;;1.10;;